sensor_id;sensor_type;location;lat;lon;timestamp;temperature;humidity
65369;HTU21D;51970;53.484;49.488;2023-04-24T00:01:54;8.35;58.05
65369;HTU21D;51970;53.484;49.488;2023-04-24T00:04:22;8.32;58.71
65369;HTU21D;51970;53.484;49.488;2023-04-24T00:06:51;8.35;58.15
65369;HTU21D;51970;53.484;49.488;2023-04-24T00:09:23;8.36;58.17
65369;HTU21D;51970;53.484;49.488;2023-04-24T00:11:49;8.43;57.65
65369;HTU21D;51970;53.484;49.488;2023-04-24T00:14:16;8.45;57.77
65369;HTU21D;51970;53.484;49.488;2023-04-24T00:16:42;8.46;57.74
65369;HTU21D;51970;53.484;49.488;2023-04-24T00:19:08;8.35;59.33
65369;HTU21D;51970;53.484;49.488;2023-04-24T00:21:34;8.22;59.59
65369;HTU21D;51970;53.484;49.488;2023-04-24T00:24:00;8.13;59.56
65369;HTU21D;51970;53.484;49.488;2023-04-24T00:26:26;8.03;59.98
65369;HTU21D;51970;53.484;49.488;2023-04-24T00:28:52;7.88;60.36
65369;HTU21D;51970;53.484;49.488;2023-04-24T00:31:18;7.78;60.66
65369;HTU21D;51970;53.484;49.488;2023-04-24T00:33:44;7.76;60.62
65369;HTU21D;51970;53.484;49.488;2023-04-24T00:36:10;7.74;61.02
65369;HTU21D;51970;53.484;49.488;2023-04-24T00:38:36;7.70;61.16
65369;HTU21D;51970;53.484;49.488;2023-04-24T00:41:02;7.69;61.13
65369;HTU21D;51970;53.484;49.488;2023-04-24T00:43:29;7.64;61.40
65369;HTU21D;51970;53.484;49.488;2023-04-24T00:45:55;7.64;61.41
65369;HTU21D;51970;53.484;49.488;2023-04-24T00:48:21;7.60;61.44
65369;HTU21D;51970;53.484;49.488;2023-04-24T00:50:47;7.57;61.50
65369;HTU21D;51970;53.484;49.488;2023-04-24T00:53:13;7.46;61.86
65369;HTU21D;51970;53.484;49.488;2023-04-24T00:55:40;7.46;62.06
65369;HTU21D;51970;53.484;49.488;2023-04-24T00:58:06;7.48;61.73
65369;HTU21D;51970;53.484;49.488;2023-04-24T01:00:32;7.48;61.66
65369;HTU21D;51970;53.484;49.488;2023-04-24T01:02:59;7.50;61.42
65369;HTU21D;51970;53.484;49.488;2023-04-24T01:05:27;7.52;61.01
65369;HTU21D;51970;53.484;49.488;2023-04-24T01:07:53;7.54;60.97
65369;HTU21D;51970;53.484;49.488;2023-04-24T01:10:20;7.60;60.70
65369;HTU21D;51970;53.484;49.488;2023-04-24T01:12:46;7.67;60.18
65369;HTU21D;51970;53.484;49.488;2023-04-24T01:15:12;7.68;60.22
65369;HTU21D;51970;53.484;49.488;2023-04-24T01:17:38;7.69;60.14
65369;HTU21D;51970;53.484;49.488;2023-04-24T01:20:05;7.69;60.27
65369;HTU21D;51970;53.484;49.488;2023-04-24T01:22:33;7.71;60.23
65369;HTU21D;51970;53.484;49.488;2023-04-24T01:25:00;7.72;60.10
65369;HTU21D;51970;53.484;49.488;2023-04-24T01:27:27;7.73;60.25
65369;HTU21D;51970;53.484;49.488;2023-04-24T01:29:53;7.69;60.14
65369;HTU21D;51970;53.484;49.488;2023-04-24T01:32:19;7.72;60.44
65369;HTU21D;51970;53.484;49.488;2023-04-24T01:34:46;7.77;60.51
65369;HTU21D;51970;53.484;49.488;2023-04-24T01:37:12;7.88;60.09
65369;HTU21D;51970;53.484;49.488;2023-04-24T01:39:39;8.16;59.41
65369;HTU21D;51970;53.484;49.488;2023-04-24T01:42:05;8.34;59.19
65369;HTU21D;51970;53.484;49.488;2023-04-24T01:44:31;8.56;58.78
65369;HTU21D;51970;53.484;49.488;2023-04-24T01:47:00;8.80;57.51
65369;HTU21D;51970;53.484;49.488;2023-04-24T01:49:26;8.89;57.24
65369;HTU21D;51970;53.484;49.488;2023-04-24T01:51:52;8.96;56.95
65369;HTU21D;51970;53.484;49.488;2023-04-24T01:54:18;9.35;56.07
65369;HTU21D;51970;53.484;49.488;2023-04-24T01:56:45;9.97;54.70
65369;HTU21D;51970;53.484;49.488;2023-04-24T01:59:12;10.56;52.46
65369;HTU21D;51970;53.484;49.488;2023-04-24T02:01:38;11.15;51.01
65369;HTU21D;51970;53.484;49.488;2023-04-24T02:04:06;11.84;49.26
65369;HTU21D;51970;53.484;49.488;2023-04-24T02:06:32;12.73;47.02
65369;HTU21D;51970;53.484;49.488;2023-04-24T02:08:59;13.63;44.91
65369;HTU21D;51970;53.484;49.488;2023-04-24T02:11:26;14.27;43.00
65369;HTU21D;51970;53.484;49.488;2023-04-24T02:13:52;14.82;41.57
65369;HTU21D;51970;53.484;49.488;2023-04-24T02:16:18;15.36;39.93
65369;HTU21D;51970;53.484;49.488;2023-04-24T02:18:45;15.86;38.78
65369;HTU21D;51970;53.484;49.488;2023-04-24T02:21:11;16.67;36.95
65369;HTU21D;51970;53.484;49.488;2023-04-24T02:23:37;17.19;35.60
65369;HTU21D;51970;53.484;49.488;2023-04-24T02:26:03;17.05;35.50
65369;HTU21D;51970;53.484;49.488;2023-04-24T02:28:29;17.62;34.89
65369;HTU21D;51970;53.484;49.488;2023-04-24T02:30:55;18.20;33.18
65369;HTU21D;51970;53.484;49.488;2023-04-24T02:33:21;18.40;33.04
65369;HTU21D;51970;53.484;49.488;2023-04-24T02:35:47;18.93;32.41
65369;HTU21D;51970;53.484;49.488;2023-04-24T02:38:13;19.47;31.42
65369;HTU21D;51970;53.484;49.488;2023-04-24T02:40:39;19.92;30.61
65369;HTU21D;51970;53.484;49.488;2023-04-24T02:43:05;19.87;29.93
65369;HTU21D;51970;53.484;49.488;2023-04-24T02:45:31;19.92;30.03
65369;HTU21D;51970;53.484;49.488;2023-04-24T02:48:00;19.89;30.35
65369;HTU21D;51970;53.484;49.488;2023-04-24T02:50:26;20.02;29.87
65369;HTU21D;51970;53.484;49.488;2023-04-24T02:52:52;20.14;29.76
65369;HTU21D;51970;53.484;49.488;2023-04-24T02:55:18;20.13;29.55
65369;HTU21D;51970;53.484;49.488;2023-04-24T02:57:44;19.85;30.18
65369;HTU21D;51970;53.484;49.488;2023-04-24T03:00:11;19.73;30.71
65369;HTU21D;51970;53.484;49.488;2023-04-24T03:02:37;19.80;31.05
65369;HTU21D;51970;53.484;49.488;2023-04-24T03:05:03;20.07;30.02
65369;HTU21D;51970;53.484;49.488;2023-04-24T03:07:30;20.14;30.16
65369;HTU21D;51970;53.484;49.488;2023-04-24T03:09:57;20.28;29.80
65369;HTU21D;51970;53.484;49.488;2023-04-24T03:12:24;20.71;28.98
65369;HTU21D;51970;53.484;49.488;2023-04-24T03:14:50;20.20;29.32
65369;HTU21D;51970;53.484;49.488;2023-04-24T03:17:16;17.52;34.50
65369;HTU21D;51970;53.484;49.488;2023-04-24T03:19:42;15.32;39.41
65369;HTU21D;51970;53.484;49.488;2023-04-24T03:22:08;14.07;43.35
65369;HTU21D;51970;53.484;49.488;2023-04-24T03:24:35;13.43;44.65
65369;HTU21D;51970;53.484;49.488;2023-04-24T03:27:01;13.16;45.76
65369;HTU21D;51970;53.484;49.488;2023-04-24T03:29:27;12.95;46.35
65369;HTU21D;51970;53.484;49.488;2023-04-24T03:31:53;12.86;46.81
65369;HTU21D;51970;53.484;49.488;2023-04-24T03:34:19;12.80;47.11
65369;HTU21D;51970;53.484;49.488;2023-04-24T03:36:45;12.86;46.95
65369;HTU21D;51970;53.484;49.488;2023-04-24T03:39:13;12.87;46.90
65369;HTU21D;51970;53.484;49.488;2023-04-24T03:41:39;13.02;46.28
65369;HTU21D;51970;53.484;49.488;2023-04-24T03:44:05;12.99;46.02
65369;HTU21D;51970;53.484;49.488;2023-04-24T03:46:32;12.96;46.41
65369;HTU21D;51970;53.484;49.488;2023-04-24T03:48:58;13.06;46.28
65369;HTU21D;51970;53.484;49.488;2023-04-24T03:51:24;13.15;45.90
65369;HTU21D;51970;53.484;49.488;2023-04-24T03:53:51;13.14;45.93
65369;HTU21D;51970;53.484;49.488;2023-04-24T03:56:17;13.21;45.77
65369;HTU21D;51970;53.484;49.488;2023-04-24T03:58:43;13.25;45.70
65369;HTU21D;51970;53.484;49.488;2023-04-24T04:01:09;13.34;45.54
65369;HTU21D;51970;53.484;49.488;2023-04-24T04:03:36;13.46;45.16
65369;HTU21D;51970;53.484;49.488;2023-04-24T04:06:02;13.48;45.22
65369;HTU21D;51970;53.484;49.488;2023-04-24T04:08:28;13.59;45.24
65369;HTU21D;51970;53.484;49.488;2023-04-24T04:10:55;13.74;44.97
65369;HTU21D;51970;53.484;49.488;2023-04-24T04:13:21;13.91;44.55
65369;HTU21D;51970;53.484;49.488;2023-04-24T04:15:47;14.03;44.25
65369;HTU21D;51970;53.484;49.488;2023-04-24T04:18:13;14.13;43.99
65369;HTU21D;51970;53.484;49.488;2023-04-24T04:20:39;14.26;43.79
65369;HTU21D;51970;53.484;49.488;2023-04-24T04:23:05;14.42;43.27
65369;HTU21D;51970;53.484;49.488;2023-04-24T04:25:31;14.58;42.95
65369;HTU21D;51970;53.484;49.488;2023-04-24T04:27:58;14.70;42.58
65369;HTU21D;51970;53.484;49.488;2023-04-24T04:30:25;14.77;42.43
65369;HTU21D;51970;53.484;49.488;2023-04-24T04:32:51;14.87;42.33
65369;HTU21D;51970;53.484;49.488;2023-04-24T04:35:17;14.87;42.26
65369;HTU21D;51970;53.484;49.488;2023-04-24T04:37:43;14.93;42.14
65369;HTU21D;51970;53.484;49.488;2023-04-24T04:40:10;14.99;42.08
65369;HTU21D;51970;53.484;49.488;2023-04-24T04:42:37;15.03;41.91
65369;HTU21D;51970;53.484;49.488;2023-04-24T04:45:07;15.04;41.86
65369;HTU21D;51970;53.484;49.488;2023-04-24T04:47:37;14.95;42.10
65369;HTU21D;51970;53.484;49.488;2023-04-24T04:50:04;15.04;41.88
65369;HTU21D;51970;53.484;49.488;2023-04-24T04:52:31;15.10;41.79
65369;HTU21D;51970;53.484;49.488;2023-04-24T04:54:57;15.27;41.59
65369;HTU21D;51970;53.484;49.488;2023-04-24T04:57:23;15.49;41.11
65369;HTU21D;51970;53.484;49.488;2023-04-24T04:59:50;15.61;40.76
65369;HTU21D;51970;53.484;49.488;2023-04-24T05:02:17;15.75;40.55
65369;HTU21D;51970;53.484;49.488;2023-04-24T05:04:43;15.90;40.78
65369;HTU21D;51970;53.484;49.488;2023-04-24T05:07:11;16.02;40.39
65369;HTU21D;51970;53.484;49.488;2023-04-24T05:09:38;16.19;39.92
65369;HTU21D;51970;53.484;49.488;2023-04-24T05:12:04;16.27;39.72
65369;HTU21D;51970;53.484;49.488;2023-04-24T05:14:30;16.37;39.73
65369;HTU21D;51970;53.484;49.488;2023-04-24T05:16:56;16.48;39.50
65369;HTU21D;51970;53.484;49.488;2023-04-24T05:19:22;16.55;39.33
65369;HTU21D;51970;53.484;49.488;2023-04-24T05:21:48;16.65;38.82
65369;HTU21D;51970;53.484;49.488;2023-04-24T05:24:15;16.80;38.18
65369;HTU21D;51970;53.484;49.488;2023-04-24T05:26:41;16.98;37.83
65369;HTU21D;51970;53.484;49.488;2023-04-24T05:29:12;17.10;37.05
65369;HTU21D;51970;53.484;49.488;2023-04-24T05:31:38;17.22;36.88
65369;HTU21D;51970;53.484;49.488;2023-04-24T05:34:05;17.31;36.47
65369;HTU21D;51970;53.484;49.488;2023-04-24T05:36:31;17.43;36.08
65369;HTU21D;51970;53.484;49.488;2023-04-24T05:38:57;17.39;35.92
65369;HTU21D;51970;53.484;49.488;2023-04-24T05:41:23;17.48;35.92
65369;HTU21D;51970;53.484;49.488;2023-04-24T05:43:49;17.50;35.57
65369;HTU21D;51970;53.484;49.488;2023-04-24T05:46:17;17.53;35.37
65369;HTU21D;51970;53.484;49.488;2023-04-24T05:48:44;17.59;35.73
65369;HTU21D;51970;53.484;49.488;2023-04-24T05:51:10;17.60;35.41
65369;HTU21D;51970;53.484;49.488;2023-04-24T05:53:36;17.78;34.98
65369;HTU21D;51970;53.484;49.488;2023-04-24T05:56:02;17.95;34.86
65369;HTU21D;51970;53.484;49.488;2023-04-24T05:58:29;18.10;35.19
65369;HTU21D;51970;53.484;49.488;2023-04-24T06:00:55;18.19;34.07
65369;HTU21D;51970;53.484;49.488;2023-04-24T06:03:23;18.09;34.31
65369;HTU21D;51970;53.484;49.488;2023-04-24T06:05:50;18.15;34.51
65369;HTU21D;51970;53.484;49.488;2023-04-24T06:08:17;18.21;34.50
65369;HTU21D;51970;53.484;49.488;2023-04-24T06:10:43;18.36;33.89
65369;HTU21D;51970;53.484;49.488;2023-04-24T06:13:09;18.50;33.90
65369;HTU21D;51970;53.484;49.488;2023-04-24T06:15:37;18.48;33.67
65369;HTU21D;51970;53.484;49.488;2023-04-24T06:18:03;18.46;33.70
65369;HTU21D;51970;53.484;49.488;2023-04-24T06:20:29;18.53;33.47
65369;HTU21D;51970;53.484;49.488;2023-04-24T06:22:55;18.66;32.72
65369;HTU21D;51970;53.484;49.488;2023-04-24T06:25:21;18.65;33.09
65369;HTU21D;51970;53.484;49.488;2023-04-24T06:27:49;18.68;32.60
65369;HTU21D;51970;53.484;49.488;2023-04-24T06:30:15;18.56;32.91
65369;HTU21D;51970;53.484;49.488;2023-04-24T06:32:41;18.61;32.89
65369;HTU21D;51970;53.484;49.488;2023-04-24T06:35:08;18.65;32.60
65369;HTU21D;51970;53.484;49.488;2023-04-24T06:37:35;18.70;32.82
65369;HTU21D;51970;53.484;49.488;2023-04-24T06:40:02;18.77;32.73
65369;HTU21D;51970;53.484;49.488;2023-04-24T06:42:28;18.78;32.51
65369;HTU21D;51970;53.484;49.488;2023-04-24T06:44:54;18.72;32.80
65369;HTU21D;51970;53.484;49.488;2023-04-24T06:47:21;18.76;32.65
65369;HTU21D;51970;53.484;49.488;2023-04-24T06:49:47;18.57;32.73
65369;HTU21D;51970;53.484;49.488;2023-04-24T06:52:14;18.52;33.65
65369;HTU21D;51970;53.484;49.488;2023-04-24T06:54:41;18.80;34.26
65369;HTU21D;51970;53.484;49.488;2023-04-24T06:57:08;18.96;32.95
65369;HTU21D;51970;53.484;49.488;2023-04-24T06:59:34;19.03;32.71
65369;HTU21D;51970;53.484;49.488;2023-04-24T07:02:00;19.09;32.59
65369;HTU21D;51970;53.484;49.488;2023-04-24T07:04:26;19.14;31.18
65369;HTU21D;51970;53.484;49.488;2023-04-24T07:06:53;19.17;31.28
65369;HTU21D;51970;53.484;49.488;2023-04-24T07:09:25;19.15;31.06
65369;HTU21D;51970;53.484;49.488;2023-04-24T07:11:52;19.24;30.40
65369;HTU21D;51970;53.484;49.488;2023-04-24T07:14:19;19.28;30.41
65369;HTU21D;51970;53.484;49.488;2023-04-24T07:16:46;19.13;30.48
65369;HTU21D;51970;53.484;49.488;2023-04-24T07:19:14;19.14;30.96
65369;HTU21D;51970;53.484;49.488;2023-04-24T07:21:41;19.27;30.16
65369;HTU21D;51970;53.484;49.488;2023-04-24T07:24:07;19.45;29.49
65369;HTU21D;51970;53.484;49.488;2023-04-24T07:26:38;19.55;28.82
65369;HTU21D;51970;53.484;49.488;2023-04-24T07:29:07;19.58;29.55
65369;HTU21D;51970;53.484;49.488;2023-04-24T07:31:33;19.59;29.22
65369;HTU21D;51970;53.484;49.488;2023-04-24T07:34:01;19.69;29.15
65369;HTU21D;51970;53.484;49.488;2023-04-24T07:36:27;19.72;28.29
65369;HTU21D;51970;53.484;49.488;2023-04-24T07:38:54;19.72;28.61
65369;HTU21D;51970;53.484;49.488;2023-04-24T07:41:21;19.70;28.78
65369;HTU21D;51970;53.484;49.488;2023-04-24T07:43:47;19.76;28.55
65369;HTU21D;51970;53.484;49.488;2023-04-24T07:46:13;19.76;27.74
65369;HTU21D;51970;53.484;49.488;2023-04-24T07:48:39;19.84;27.81
65369;HTU21D;51970;53.484;49.488;2023-04-24T07:51:05;19.74;27.50
65369;HTU21D;51970;53.484;49.488;2023-04-24T07:53:32;19.62;27.93
65369;HTU21D;51970;53.484;49.488;2023-04-24T07:55:58;19.41;28.75
65369;HTU21D;51970;53.484;49.488;2023-04-24T07:58:24;19.41;28.80
65369;HTU21D;51970;53.484;49.488;2023-04-24T08:00:50;19.57;28.81
65369;HTU21D;51970;53.484;49.488;2023-04-24T08:03:16;19.48;28.72
65369;HTU21D;51970;53.484;49.488;2023-04-24T08:05:45;19.50;28.07
65369;HTU21D;51970;53.484;49.488;2023-04-24T08:08:12;19.63;28.48
65369;HTU21D;51970;53.484;49.488;2023-04-24T08:10:42;19.73;27.67
65369;HTU21D;51970;53.484;49.488;2023-04-24T08:13:08;19.92;26.97
65369;HTU21D;51970;53.484;49.488;2023-04-24T08:15:34;20.12;27.03
65369;HTU21D;51970;53.484;49.488;2023-04-24T08:18:00;20.26;26.17
65369;HTU21D;51970;53.484;49.488;2023-04-24T08:20:27;20.24;26.10
65369;HTU21D;51970;53.484;49.488;2023-04-24T08:22:53;20.20;25.11
65369;HTU21D;51970;53.484;49.488;2023-04-24T08:25:20;20.26;25.29
65369;HTU21D;51970;53.484;49.488;2023-04-24T08:27:48;20.46;25.68
65369;HTU21D;51970;53.484;49.488;2023-04-24T08:30:14;20.47;24.75
65369;HTU21D;51970;53.484;49.488;2023-04-24T08:32:41;20.60;24.78
65369;HTU21D;51970;53.484;49.488;2023-04-24T08:35:07;20.39;24.22
65369;HTU21D;51970;53.484;49.488;2023-04-24T08:37:37;20.28;24.74
65369;HTU21D;51970;53.484;49.488;2023-04-24T08:40:15;20.36;24.24
65369;HTU21D;51970;53.484;49.488;2023-04-24T08:42:42;20.34;24.76
65369;HTU21D;51970;53.484;49.488;2023-04-24T08:45:10;20.55;24.59
65369;HTU21D;51970;53.484;49.488;2023-04-24T08:47:39;20.70;24.94
65369;HTU21D;51970;53.484;49.488;2023-04-24T08:50:06;20.68;24.25
65369;HTU21D;51970;53.484;49.488;2023-04-24T08:52:33;20.48;24.99
65369;HTU21D;51970;53.484;49.488;2023-04-24T08:55:00;20.45;25.10
65369;HTU21D;51970;53.484;49.488;2023-04-24T08:57:27;20.49;24.87
65369;HTU21D;51970;53.484;49.488;2023-04-24T08:59:54;20.43;25.82
65369;HTU21D;51970;53.484;49.488;2023-04-24T09:02:21;20.36;25.73
65369;HTU21D;51970;53.484;49.488;2023-04-24T09:04:49;20.64;25.41
65369;HTU21D;51970;53.484;49.488;2023-04-24T09:07:16;20.72;25.20
65369;HTU21D;51970;53.484;49.488;2023-04-24T09:09:44;20.49;25.33
65369;HTU21D;51970;53.484;49.488;2023-04-24T09:12:11;20.51;25.19
65369;HTU21D;51970;53.484;49.488;2023-04-24T09:14:37;20.64;25.25
65369;HTU21D;51970;53.484;49.488;2023-04-24T09:17:08;20.80;25.16
65369;HTU21D;51970;53.484;49.488;2023-04-24T09:19:35;20.77;25.20
65369;HTU21D;51970;53.484;49.488;2023-04-24T09:22:04;20.95;25.35
65369;HTU21D;51970;53.484;49.488;2023-04-24T09:24:33;21.03;24.66
65369;HTU21D;51970;53.484;49.488;2023-04-24T09:26:59;20.87;24.78
65369;HTU21D;51970;53.484;49.488;2023-04-24T09:29:29;20.78;25.21
65369;HTU21D;51970;53.484;49.488;2023-04-24T09:31:57;20.86;24.74
65369;HTU21D;51970;53.484;49.488;2023-04-24T09:34:25;20.99;24.79
65369;HTU21D;51970;53.484;49.488;2023-04-24T09:36:52;20.91;24.53
65369;HTU21D;51970;53.484;49.488;2023-04-24T09:39:18;20.91;24.81
65369;HTU21D;51970;53.484;49.488;2023-04-24T09:41:50;20.93;24.71
65369;HTU21D;51970;53.484;49.488;2023-04-24T09:44:24;20.89;24.59
65369;HTU21D;51970;53.484;49.488;2023-04-24T09:47:00;20.70;24.97
65369;HTU21D;51970;53.484;49.488;2023-04-24T09:49:30;20.75;24.42
65369;HTU21D;51970;53.484;49.488;2023-04-24T09:52:07;20.76;25.00
65369;HTU21D;51970;53.484;49.488;2023-04-24T09:54:34;20.75;24.75
65369;HTU21D;51970;53.484;49.488;2023-04-24T09:57:03;20.65;24.82
65369;HTU21D;51970;53.484;49.488;2023-04-24T09:59:32;20.85;24.98
65369;HTU21D;51970;53.484;49.488;2023-04-24T10:02:02;21.08;24.75
65369;HTU21D;51970;53.484;49.488;2023-04-24T10:04:30;21.19;24.57
65369;HTU21D;51970;53.484;49.488;2023-04-24T10:06:58;21.37;24.23
65369;HTU21D;51970;53.484;49.488;2023-04-24T10:09:27;21.18;24.17
65369;HTU21D;51970;53.484;49.488;2023-04-24T10:11:54;20.99;24.01
65369;HTU21D;51970;53.484;49.488;2023-04-24T10:14:24;20.85;24.49
65369;HTU21D;51970;53.484;49.488;2023-04-24T10:16:53;21.10;24.30
65369;HTU21D;51970;53.484;49.488;2023-04-24T10:19:19;21.10;24.32
65369;HTU21D;51970;53.484;49.488;2023-04-24T10:21:46;20.96;24.20
65369;HTU21D;51970;53.484;49.488;2023-04-24T10:24:14;20.88;24.77
65369;HTU21D;51970;53.484;49.488;2023-04-24T10:26:41;20.99;24.49
65369;HTU21D;51970;53.484;49.488;2023-04-24T10:29:08;20.95;24.60
65369;HTU21D;51970;53.484;49.488;2023-04-24T10:31:36;21.05;24.67
65369;HTU21D;51970;53.484;49.488;2023-04-24T10:34:05;21.25;24.36
65369;HTU21D;51970;53.484;49.488;2023-04-24T10:36:38;21.35;24.23
65369;HTU21D;51970;53.484;49.488;2023-04-24T10:39:08;21.43;24.11
65369;HTU21D;51970;53.484;49.488;2023-04-24T10:41:37;21.45;23.83
65369;HTU21D;51970;53.484;49.488;2023-04-24T10:46:45;21.17;24.61
65369;HTU21D;51970;53.484;49.488;2023-04-24T10:49:11;21.03;25.22
65369;HTU21D;51970;53.484;49.488;2023-04-24T10:51:51;21.23;24.92
65369;HTU21D;51970;53.484;49.488;2023-04-24T10:59:47;21.54;24.27
65369;HTU21D;51970;53.484;49.488;2023-04-24T11:02:17;21.49;23.73
65369;HTU21D;51970;53.484;49.488;2023-04-24T11:04:48;21.39;24.11
65369;HTU21D;51970;53.484;49.488;2023-04-24T11:07:16;21.44;23.99
65369;HTU21D;51970;53.484;49.488;2023-04-24T11:09:44;21.47;24.33
65369;HTU21D;51970;53.484;49.488;2023-04-24T11:12:11;21.38;23.42
65369;HTU21D;51970;53.484;49.488;2023-04-24T11:20:01;21.48;23.47
65369;HTU21D;51970;53.484;49.488;2023-04-24T11:22:28;21.46;24.00
65369;HTU21D;51970;53.484;49.488;2023-04-24T11:24:55;21.32;24.01
65369;HTU21D;51970;53.484;49.488;2023-04-24T11:27:23;21.27;23.50
65369;HTU21D;51970;53.484;49.488;2023-04-24T11:37:40;21.55;23.66
65369;HTU21D;51970;53.484;49.488;2023-04-24T11:40:13;21.54;23.43
65369;HTU21D;51970;53.484;49.488;2023-04-24T11:42:43;21.49;23.72
65369;HTU21D;51970;53.484;49.488;2023-04-24T11:45:14;21.59;23.16
65369;HTU21D;51970;53.484;49.488;2023-04-24T11:47:41;21.44;23.37
65369;HTU21D;51970;53.484;49.488;2023-04-24T11:50:10;21.47;23.63
65369;HTU21D;51970;53.484;49.488;2023-04-24T11:52:41;21.50;23.49
65369;HTU21D;51970;53.484;49.488;2023-04-24T11:57:45;21.48;23.21
65369;HTU21D;51970;53.484;49.488;2023-04-24T12:00:33;21.45;23.85
65369;HTU21D;51970;53.484;49.488;2023-04-24T12:03:11;21.62;23.24
65369;HTU21D;51970;53.484;49.488;2023-04-24T12:05:39;21.66;23.01
65369;HTU21D;51970;53.484;49.488;2023-04-24T12:08:06;21.75;23.30
65369;HTU21D;51970;53.484;49.488;2023-04-24T12:10:33;21.72;23.12
65369;HTU21D;51970;53.484;49.488;2023-04-24T12:13:01;21.59;23.27
65369;HTU21D;51970;53.484;49.488;2023-04-24T12:15:29;21.52;23.62
65369;HTU21D;51970;53.484;49.488;2023-04-24T12:17:55;21.48;23.39
65369;HTU21D;51970;53.484;49.488;2023-04-24T12:20:30;21.59;23.56
65369;HTU21D;51970;53.484;49.488;2023-04-24T12:23:00;21.77;23.50
65369;HTU21D;51970;53.484;49.488;2023-04-24T12:25:35;21.75;22.87
65369;HTU21D;51970;53.484;49.488;2023-04-24T12:30:32;21.68;23.27
65369;HTU21D;51970;53.484;49.488;2023-04-24T12:32:59;21.95;23.32
65369;HTU21D;51970;53.484;49.488;2023-04-24T12:35:31;21.98;23.13
65369;HTU21D;51970;53.484;49.488;2023-04-24T12:38:12;21.88;23.06
65369;HTU21D;51970;53.484;49.488;2023-04-24T12:40:39;21.72;23.31
65369;HTU21D;51970;53.484;49.488;2023-04-24T12:43:19;21.58;23.47
65369;HTU21D;51970;53.484;49.488;2023-04-24T12:45:47;21.53;23.43
65369;HTU21D;51970;53.484;49.488;2023-04-24T12:48:13;21.34;23.66
65369;HTU21D;51970;53.484;49.488;2023-04-24T12:50:43;21.07;24.09
65369;HTU21D;51970;53.484;49.488;2023-04-24T12:53:09;20.91;24.24
65369;HTU21D;51970;53.484;49.488;2023-04-24T12:55:36;20.69;24.46
65369;HTU21D;51970;53.484;49.488;2023-04-24T12:58:02;20.47;24.72
65369;HTU21D;51970;53.484;49.488;2023-04-24T13:00:29;20.39;25.08
65369;HTU21D;51970;53.484;49.488;2023-04-24T13:02:55;20.53;24.85
65369;HTU21D;51970;53.484;49.488;2023-04-24T13:05:21;20.49;24.90
65369;HTU21D;51970;53.484;49.488;2023-04-24T13:07:47;20.31;24.85
65369;HTU21D;51970;53.484;49.488;2023-04-24T13:10:14;20.15;25.52
65369;HTU21D;51970;53.484;49.488;2023-04-24T13:12:40;20.09;25.41
65369;HTU21D;51970;53.484;49.488;2023-04-24T13:15:07;20.25;25.23
65369;HTU21D;51970;53.484;49.488;2023-04-24T13:17:33;20.45;24.93
65369;HTU21D;51970;53.484;49.488;2023-04-24T13:19:59;20.58;24.62
65369;HTU21D;51970;53.484;49.488;2023-04-24T13:22:25;20.53;24.45
65369;HTU21D;51970;53.484;49.488;2023-04-24T13:24:51;20.49;24.67
65369;HTU21D;51970;53.484;49.488;2023-04-24T13:27:18;20.48;24.36
65369;HTU21D;51970;53.484;49.488;2023-04-24T13:29:45;20.34;24.33
65369;HTU21D;51970;53.484;49.488;2023-04-24T13:32:11;20.35;24.65
65369;HTU21D;51970;53.484;49.488;2023-04-24T13:34:37;20.36;24.87
65369;HTU21D;51970;53.484;49.488;2023-04-24T13:37:04;20.39;24.53
65369;HTU21D;51970;53.484;49.488;2023-04-24T13:39:31;20.40;24.63
65369;HTU21D;51970;53.484;49.488;2023-04-24T13:41:58;20.40;25.17
65369;HTU21D;51970;53.484;49.488;2023-04-24T13:44:27;20.26;25.34
65369;HTU21D;51970;53.484;49.488;2023-04-24T13:47:05;20.05;25.92
65369;HTU21D;51970;53.484;49.488;2023-04-24T13:49:32;20.01;26.20
65369;HTU21D;51970;53.484;49.488;2023-04-24T13:51:58;19.94;26.24
65369;HTU21D;51970;53.484;49.488;2023-04-24T13:54:24;19.99;26.19
65369;HTU21D;51970;53.484;49.488;2023-04-24T13:56:52;20.06;25.60
65369;HTU21D;51970;53.484;49.488;2023-04-24T13:59:20;20.10;25.44
65369;HTU21D;51970;53.484;49.488;2023-04-24T14:01:47;20.17;25.40
65369;HTU21D;51970;53.484;49.488;2023-04-24T14:04:14;20.18;26.01
65369;HTU21D;51970;53.484;49.488;2023-04-24T14:06:40;20.20;25.61
65369;HTU21D;51970;53.484;49.488;2023-04-24T14:09:08;20.16;25.72
65369;HTU21D;51970;53.484;49.488;2023-04-24T14:11:35;20.18;26.06
65369;HTU21D;51970;53.484;49.488;2023-04-24T14:14:02;20.06;26.46
65369;HTU21D;51970;53.484;49.488;2023-04-24T14:16:30;19.86;27.17
65369;HTU21D;51970;53.484;49.488;2023-04-24T14:18:57;19.77;27.98
65369;HTU21D;51970;53.484;49.488;2023-04-24T14:21:23;20.29;26.65
65369;HTU21D;51970;53.484;49.488;2023-04-24T14:23:49;20.65;26.03
65369;HTU21D;51970;53.484;49.488;2023-04-24T14:26:16;20.80;25.46
65369;HTU21D;51970;53.484;49.488;2023-04-24T14:28:43;20.95;25.20
65369;HTU21D;51970;53.484;49.488;2023-04-24T14:31:09;20.99;25.06
65369;HTU21D;51970;53.484;49.488;2023-04-24T14:33:35;20.87;24.96
65369;HTU21D;51970;53.484;49.488;2023-04-24T14:36:02;21.01;25.07
65369;HTU21D;51970;53.484;49.488;2023-04-24T14:38:30;21.01;25.11
65369;HTU21D;51970;53.484;49.488;2023-04-24T14:40:57;20.53;25.91
65369;HTU21D;51970;53.484;49.488;2023-04-24T14:43:23;20.06;26.99
65369;HTU21D;51970;53.484;49.488;2023-04-24T14:45:50;19.71;27.72
65369;HTU21D;51970;53.484;49.488;2023-04-24T14:48:16;19.53;28.40
65369;HTU21D;51970;53.484;49.488;2023-04-24T14:50:43;19.33;28.71
65369;HTU21D;51970;53.484;49.488;2023-04-24T14:53:11;19.17;28.89
65369;HTU21D;51970;53.484;49.488;2023-04-24T14:55:37;19.06;29.15
65369;HTU21D;51970;53.484;49.488;2023-04-24T14:58:04;19.00;29.45
65369;HTU21D;51970;53.484;49.488;2023-04-24T15:00:30;18.95;29.57
65369;HTU21D;51970;53.484;49.488;2023-04-24T15:02:57;18.93;29.96
65369;HTU21D;51970;53.484;49.488;2023-04-24T15:05:24;18.88;30.03
65369;HTU21D;51970;53.484;49.488;2023-04-24T15:07:51;18.78;30.14
65369;HTU21D;51970;53.484;49.488;2023-04-24T15:10:17;18.66;30.49
65369;HTU21D;51970;53.484;49.488;2023-04-24T15:12:44;18.54;30.81
65369;HTU21D;51970;53.484;49.488;2023-04-24T15:15:11;18.46;31.11
65369;HTU21D;51970;53.484;49.488;2023-04-24T15:17:37;18.36;31.32
65369;HTU21D;51970;53.484;49.488;2023-04-24T15:20:04;18.30;31.42
65369;HTU21D;51970;53.484;49.488;2023-04-24T15:22:32;18.25;31.55
65369;HTU21D;51970;53.484;49.488;2023-04-24T15:25:00;18.21;31.77
65369;HTU21D;51970;53.484;49.488;2023-04-24T15:27:27;18.14;31.61
65369;HTU21D;51970;53.484;49.488;2023-04-24T15:29:53;18.08;31.64